PWSweather.com
Personal Weather Stations
Station Observations
KFLNICEV15
Indigo Village, Niceville, FL 32578

Indigo VillageNiceville, FL 32578

Lat: 30.478505, Lon: -86.412487

Elevation: 79

Station Type: Davis/Vantage Pro

http://k4thdweather.net

Latest ConditionsUpdated 12:35:47 PM CDT Thursday, Aug 16, 2018
Currently Today's Max Today's Min Today's Average
Temperature 83.1°F28.4°C 83.1°F28.4°C 77.1°F25.1°C 79.8°F26.6°C
Dew Point 78.1°F25.6°C 79.9°F26.6°C 75.2°F24.0°C 76.9°F24.9°C
Winds 2.3 mph SE3.7 kmh SE 3.5 mph -5.6 kmh - - 0.3 mph 0.5 kmh
Wind Gusts 3.5 mph5.6 kmh 6.9 mph11.1 kmh - -
Humidity 85% 94% 85% 91%
Pressure 30.14 in1020.7 mb 30.14 in1020.7 mb 30.04 in1017.3 mb -
Precipitation - 0.11 in2.8 mm - -
Hour Temp Dew Point Humidity Winds Wind Gusts Pressure Precip Precip Rate Daily Precip Total
12:35 PM 83.1°F28.4°C 78.1°F25.6°C 85% 2.3 mph SE3.7 kmh SE 3.5 mph5.6 kmh 30.14 in1020.7 mb - 0.00 in0.0 mm 0.11 in2.8 mm
12:25 PM 82.4°F28.0°C 77.8°F25.4°C 86% 2.3 mph SSE3.7 kmh SSE 5.8 mph9.3 kmh 30.14 in1020.7 mb - 0.00 in0.0 mm 0.11 in2.8 mm
12:00 PM 81.5°F27.5°C 77.9°F25.5°C 89% 3.5 mph SSE5.6 kmh SSE 5.8 mph9.3 kmh 30.14 in1020.7 mb - 0.00 in0.0 mm 0.11 in2.8 mm
11:55 AM 81.3°F27.4°C 77.8°F25.4°C 89% 3.5 mph S5.6 kmh S 6.9 mph11.1 kmh 30.14 in1020.7 mb - 0.00 in0.0 mm 0.11 in2.8 mm
11:25 AM 80.2°F26.8°C 77.6°F25.3°C 92% Calm Calm 6.9 mph11.1 kmh 30.14 in1020.7 mb - 0.00 in0.0 mm 0.11 in2.8 mm
11:21 AM 80.1°F26.7°C 77.6°F25.3°C 92% Calm Calm 2.3 mph3.7 kmh 30.14 in1020.7 mb - 0.00 in0.0 mm 0.11 in2.8 mm
10:55 AM 79.9°F26.6°C 77.1°F25.1°C 91% 1.2 mph SSE1.9 kmh SSE 3.5 mph5.6 kmh 30.14 in1020.7 mb - 0.00 in0.0 mm 0.11 in2.8 mm
10:51 AM 80.0°F26.7°C 77.1°F25.1°C 91% 1.2 mph S1.9 kmh S 3.5 mph5.6 kmh 30.14 in1020.7 mb - 0.00 in0.0 mm 0.11 in2.8 mm
10:00 AM 82.1°F27.8°C 79.9°F26.6°C 93% Calm Calm -- 30.14 in1020.7 mb - 0.00 in0.0 mm 0.11 in2.8 mm
09:55 AM 82.1°F27.8°C 79.8°F26.6°C 93% Calm Calm -- 30.13 in1020.3 mb - 0.00 in0.0 mm 0.11 in2.8 mm
09:45 AM 81.8°F27.7°C 79.2°F26.2°C 92% Calm Calm -- 30.13 in1020.3 mb - 0.00 in0.0 mm 0.11 in2.8 mm
09:35 AM 81.8°F27.7°C 79.2°F26.2°C 92% Calm Calm -- 30.13 in1020.3 mb - 0.00 in0.0 mm 0.11 in2.8 mm
09:25 AM 80.6°F27.0°C 78.7°F25.9°C 94% Calm Calm -- 30.13 in1020.3 mb - 0.00 in0.0 mm 0.11 in2.8 mm
09:15 AM 80.4°F26.9°C 78.5°F25.8°C 94% Calm Calm -- 30.13 in1020.3 mb - 0.00 in0.0 mm 0.11 in2.8 mm
09:11 AM 80.4°F26.9°C 78.5°F25.8°C 94% Calm Calm -- 30.13 in1020.3 mb - 0.00 in0.0 mm 0.11 in2.8 mm
09:00 AM 80.3°F26.8°C 78.4°F25.8°C 94% Calm Calm -- 30.13 in1020.3 mb - 0.00 in0.0 mm 0.11 in2.8 mm
08:35 AM 78.5°F25.8°C 76.6°F24.8°C 94% Calm Calm -- 30.13 in1020.3 mb - 0.00 in0.0 mm 0.11 in2.8 mm
08:31 AM 78.4°F25.8°C 76.5°F24.7°C 94% Calm Calm -- 30.13 in1020.3 mb - 0.00 in0.0 mm 0.11 in2.8 mm
08:26 AM 78.4°F25.8°C 76.5°F24.7°C 94% Calm Calm -- 30.12 in1020.0 mb - 0.00 in0.0 mm 0.11 in2.8 mm
08:00 AM 78.3°F25.7°C 76.4°F24.7°C 94% Calm Calm -- 30.12 in1020.0 mb - 0.00 in0.0 mm 0.11 in2.8 mm
07:00 AM 77.2°F25.1°C 75.3°F24.1°C 94% Calm Calm -- 30.10 in1019.3 mb - 0.11 in2.8 mm 0.11 in2.8 mm
06:45 AM 77.1°F25.1°C 75.2°F24.0°C 94% Calm Calm -- 30.09 in1019.0 mb - 0.11 in2.8 mm 0.11 in2.8 mm
06:41 AM 77.1°F25.1°C 75.2°F24.0°C 94% Calm Calm -- 30.09 in1019.0 mb - 0.11 in2.8 mm 0.11 in2.8 mm
06:35 AM 77.1°F25.1°C 75.2°F24.0°C 94% Calm Calm -- 30.09 in1019.0 mb - 0.11 in2.8 mm 0.11 in2.8 mm
06:25 AM 77.2°F25.1°C 75.3°F24.1°C 94% Calm Calm -- 30.09 in1019.0 mb - 0.11 in2.8 mm 0.11 in2.8 mm
06:15 AM 77.3°F25.2°C 75.4°F24.1°C 94% Calm Calm -- 30.09 in1019.0 mb - 0.11 in2.8 mm 0.11 in2.8 mm
05:55 AM 77.7°F25.4°C 75.8°F24.3°C 94% Calm Calm -- 30.08 in1018.6 mb - 0.11 in2.8 mm 0.11 in2.8 mm
05:45 AM 78.0°F25.6°C 76.1°F24.5°C 94% Calm Calm -- 30.07 in1018.3 mb - 0.11 in2.8 mm 0.11 in2.8 mm
05:41 AM 78.0°F25.6°C 76.1°F24.5°C 94% Calm Calm -- 30.07 in1018.3 mb - 0.11 in2.8 mm 0.11 in2.8 mm
05:35 AM 78.0°F25.6°C 76.1°F24.5°C 94% Calm Calm -- 30.07 in1018.3 mb - 0.11 in2.8 mm 0.11 in2.8 mm
05:25 AM 78.0°F25.6°C 75.9°F24.4°C 93% Calm Calm -- 30.07 in1018.3 mb - 0.11 in2.8 mm 0.11 in2.8 mm
05:15 AM 78.6°F25.9°C 75.8°F24.3°C 91% Calm Calm -- 30.07 in1018.3 mb - 0.07 in1.8 mm 0.07 in1.8 mm
05:00 AM 78.6°F25.9°C 75.8°F24.3°C 91% Calm Calm -- 30.07 in1018.3 mb - 0.07 in1.8 mm 0.07 in1.8 mm
03:55 AM 79.7°F26.5°C 75.5°F24.2°C 87% Calm Calm -- 30.05 in1017.6 mb - 0.00 in0.0 mm 0.00 in0.0 mm
03:45 AM 79.8°F26.6°C 75.6°F24.2°C 87% Calm Calm -- 30.05 in1017.6 mb - 0.00 in0.0 mm 0.00 in0.0 mm
03:35 AM 79.9°F26.6°C 75.3°F24.1°C 86% Calm Calm -- 30.05 in1017.6 mb - 0.00 in0.0 mm 0.00 in0.0 mm
03:31 AM 80.0°F26.7°C 75.4°F24.1°C 86% Calm Calm -- 30.05 in1017.6 mb - 0.00 in0.0 mm 0.00 in0.0 mm
03:00 AM 80.8°F27.1°C 76.2°F24.6°C 86% Calm Calm 1.2 mph1.9 kmh 30.05 in1017.6 mb - 0.00 in0.0 mm 0.00 in0.0 mm
02:00 AM 80.8°F27.1°C 76.9°F24.9°C 88% Calm Calm 1.2 mph1.9 kmh 30.04 in1017.3 mb - 0.00 in0.0 mm 0.00 in0.0 mm
01:51 AM 80.8°F27.1°C 76.9°F24.9°C 88% Calm Calm -- 30.05 in1017.6 mb - 0.00 in0.0 mm 0.00 in0.0 mm
01:35 AM 80.8°F27.1°C 76.9°F24.9°C 88% Calm Calm -- 30.05 in1017.6 mb - 0.00 in0.0 mm 0.00 in0.0 mm
01:31 AM 80.9°F27.2°C 77.0°F25.0°C 88% Calm Calm -- 30.05 in1017.6 mb - 0.00 in0.0 mm 0.00 in0.0 mm
01:25 AM 80.9°F27.2°C 77.0°F25.0°C 88% Calm Calm -- 30.05 in1017.6 mb - 0.00 in0.0 mm 0.00 in0.0 mm
01:21 AM 80.9°F27.2°C 77.0°F25.0°C 88% Calm Calm -- 30.05 in1017.6 mb - 0.00 in0.0 mm 0.00 in0.0 mm
01:11 AM 80.9°F27.2°C 77.0°F25.0°C 88% Calm Calm -- 30.05 in1017.6 mb - 0.00 in0.0 mm 0.00 in0.0 mm
12:10 AM 81.3°F27.4°C 77.4°F25.2°C 88% Calm Calm -- 30.06 in1017.9 mb - 0.00 in0.0 mm 0.00 in0.0 mm
12:00 AM 81.3°F27.4°C 77.4°F25.2°C 88% Calm Calm 3.5 mph5.6 kmh 30.06 in1017.9 mb - 0.00 in0.0 mm 0.00 in0.0 mm